sensor_id;sensor_type;location;lat;lon;timestamp;temperature;humidity
48752;DHT22;34544;48.836;9.174;2024-01-25T00:01:17;10.30;99.90
48752;DHT22;34544;48.836;9.174;2024-01-25T00:03:43;10.30;99.90
48752;DHT22;34544;48.836;9.174;2024-01-25T00:06:09;10.30;99.90
48752;DHT22;34544;48.836;9.174;2024-01-25T00:08:35;10.30;99.90
48752;DHT22;34544;48.836;9.174;2024-01-25T00:11:04;10.40;99.90
48752;DHT22;34544;48.836;9.174;2024-01-25T00:13:30;10.40;99.90
48752;DHT22;34544;48.836;9.174;2024-01-25T00:15:55;10.40;99.90
48752;DHT22;34544;48.836;9.174;2024-01-25T00:18:21;10.40;99.90
48752;DHT22;34544;48.836;9.174;2024-01-25T00:20:47;10.40;99.90
48752;DHT22;34544;48.836;9.174;2024-01-25T00:23:13;10.40;99.90
48752;DHT22;34544;48.836;9.174;2024-01-25T00:25:39;10.40;99.90
48752;DHT22;34544;48.836;9.174;2024-01-25T00:28:04;10.40;99.90
48752;DHT22;34544;48.836;9.174;2024-01-25T00:30:30;10.40;99.90
48752;DHT22;34544;48.836;9.174;2024-01-25T00:32:56;10.40;99.90
48752;DHT22;34544;48.836;9.174;2024-01-25T00:35:23;10.40;99.90
48752;DHT22;34544;48.836;9.174;2024-01-25T00:37:49;10.40;99.90
48752;DHT22;34544;48.836;9.174;2024-01-25T00:40:15;10.40;99.90
48752;DHT22;34544;48.836;9.174;2024-01-25T00:42:43;10.40;99.90
48752;DHT22;34544;48.836;9.174;2024-01-25T00:45:10;10.40;99.90
48752;DHT22;34544;48.836;9.174;2024-01-25T00:47:36;10.40;99.90
48752;DHT22;34544;48.836;9.174;2024-01-25T00:50:03;10.40;99.90
48752;DHT22;34544;48.836;9.174;2024-01-25T00:52:29;10.50;99.90
48752;DHT22;34544;48.836;9.174;2024-01-25T00:54:56;10.50;99.90
48752;DHT22;34544;48.836;9.174;2024-01-25T00:57:22;10.50;99.90
48752;DHT22;34544;48.836;9.174;2024-01-25T00:59:48;10.50;99.90
48752;DHT22;34544;48.836;9.174;2024-01-25T01:02:14;10.50;99.90
48752;DHT22;34544;48.836;9.174;2024-01-25T01:04:40;10.50;99.90
48752;DHT22;34544;48.836;9.174;2024-01-25T01:07:07;10.50;99.90
48752;DHT22;34544;48.836;9.174;2024-01-25T01:09:32;10.50;99.90
48752;DHT22;34544;48.836;9.174;2024-01-25T01:11:58;10.50;99.90
48752;DHT22;34544;48.836;9.174;2024-01-25T01:14:24;10.50;99.90
48752;DHT22;34544;48.836;9.174;2024-01-25T01:16:50;10.50;99.90
48752;DHT22;34544;48.836;9.174;2024-01-25T01:19:16;10.50;99.90
48752;DHT22;34544;48.836;9.174;2024-01-25T01:21:42;10.50;99.90
48752;DHT22;34544;48.836;9.174;2024-01-25T01:24:10;10.50;99.90
48752;DHT22;34544;48.836;9.174;2024-01-25T01:26:37;10.50;99.90
48752;DHT22;34544;48.836;9.174;2024-01-25T01:29:03;10.50;99.90
48752;DHT22;34544;48.836;9.174;2024-01-25T01:31:29;10.60;99.90
48752;DHT22;34544;48.836;9.174;2024-01-25T01:33:56;10.60;99.90
48752;DHT22;34544;48.836;9.174;2024-01-25T01:36:23;10.60;99.90
48752;DHT22;34544;48.836;9.174;2024-01-25T01:38:49;10.60;99.90
48752;DHT22;34544;48.836;9.174;2024-01-25T01:41:15;10.60;99.90
48752;DHT22;34544;48.836;9.174;2024-01-25T01:43:41;10.60;99.90
48752;DHT22;34544;48.836;9.174;2024-01-25T01:46:19;10.60;99.90
48752;DHT22;34544;48.836;9.174;2024-01-25T01:48:46;10.60;99.90
48752;DHT22;34544;48.836;9.174;2024-01-25T01:51:12;10.60;99.90
48752;DHT22;34544;48.836;9.174;2024-01-25T01:53:38;10.60;99.90
48752;DHT22;34544;48.836;9.174;2024-01-25T01:56:04;10.60;99.90
48752;DHT22;34544;48.836;9.174;2024-01-25T01:58:31;10.60;99.90
48752;DHT22;34544;48.836;9.174;2024-01-25T02:00:59;10.50;99.90
48752;DHT22;34544;48.836;9.174;2024-01-25T02:03:25;10.50;99.90
48752;DHT22;34544;48.836;9.174;2024-01-25T02:05:51;10.50;99.90
48752;DHT22;34544;48.836;9.174;2024-01-25T02:08:16;10.50;99.90
48752;DHT22;34544;48.836;9.174;2024-01-25T02:10:42;10.50;99.90
48752;DHT22;34544;48.836;9.174;2024-01-25T02:13:09;10.50;99.90
48752;DHT22;34544;48.836;9.174;2024-01-25T02:15:34;10.50;99.90
48752;DHT22;34544;48.836;9.174;2024-01-25T02:18:01;10.50;99.90
48752;DHT22;34544;48.836;9.174;2024-01-25T02:20:27;10.40;99.90
48752;DHT22;34544;48.836;9.174;2024-01-25T02:22:52;10.40;99.90
48752;DHT22;34544;48.836;9.174;2024-01-25T02:25:18;10.50;99.90
48752;DHT22;34544;48.836;9.174;2024-01-25T02:27:43;10.40;99.90
48752;DHT22;34544;48.836;9.174;2024-01-25T02:30:10;10.40;99.90
48752;DHT22;34544;48.836;9.174;2024-01-25T02:32:36;10.40;99.90
48752;DHT22;34544;48.836;9.174;2024-01-25T02:35:02;10.40;99.90
48752;DHT22;34544;48.836;9.174;2024-01-25T02:37:28;10.40;99.90
48752;DHT22;34544;48.836;9.174;2024-01-25T02:39:53;10.30;99.90
48752;DHT22;34544;48.836;9.174;2024-01-25T02:42:19;10.30;99.90
48752;DHT22;34544;48.836;9.174;2024-01-25T02:44:45;10.30;99.90
48752;DHT22;34544;48.836;9.174;2024-01-25T02:47:10;10.30;99.90
48752;DHT22;34544;48.836;9.174;2024-01-25T02:49:36;10.30;99.90
48752;DHT22;34544;48.836;9.174;2024-01-25T02:52:02;10.30;99.90
48752;DHT22;34544;48.836;9.174;2024-01-25T02:54:28;10.30;99.90
48752;DHT22;34544;48.836;9.174;2024-01-25T02:56:53;10.30;99.90
48752;DHT22;34544;48.836;9.174;2024-01-25T02:59:20;10.30;99.90
48752;DHT22;34544;48.836;9.174;2024-01-25T03:01:46;10.20;99.90
48752;DHT22;34544;48.836;9.174;2024-01-25T03:04:12;10.20;99.90
48752;DHT22;34544;48.836;9.174;2024-01-25T03:06:38;10.20;99.90
48752;DHT22;34544;48.836;9.174;2024-01-25T03:09:04;10.20;99.90
48752;DHT22;34544;48.836;9.174;2024-01-25T03:11:33;10.20;99.90
48752;DHT22;34544;48.836;9.174;2024-01-25T03:13:59;10.20;99.90
48752;DHT22;34544;48.836;9.174;2024-01-25T03:16:25;10.20;99.90
48752;DHT22;34544;48.836;9.174;2024-01-25T03:18:51;10.20;99.90
48752;DHT22;34544;48.836;9.174;2024-01-25T03:21:16;10.20;99.90
48752;DHT22;34544;48.836;9.174;2024-01-25T03:23:42;10.10;99.90
48752;DHT22;34544;48.836;9.174;2024-01-25T03:26:08;10.10;99.90
48752;DHT22;34544;48.836;9.174;2024-01-25T03:28:34;10.10;99.90
48752;DHT22;34544;48.836;9.174;2024-01-25T03:31:01;10.10;99.90
48752;DHT22;34544;48.836;9.174;2024-01-25T03:33:27;10.10;99.90
48752;DHT22;34544;48.836;9.174;2024-01-25T03:35:54;10.10;99.90
48752;DHT22;34544;48.836;9.174;2024-01-25T03:38:20;10.00;99.90
48752;DHT22;34544;48.836;9.174;2024-01-25T03:40:46;10.00;99.90
48752;DHT22;34544;48.836;9.174;2024-01-25T03:43:11;10.00;99.90
48752;DHT22;34544;48.836;9.174;2024-01-25T03:45:37;9.90;99.90
48752;DHT22;34544;48.836;9.174;2024-01-25T03:48:03;10.00;99.90
48752;DHT22;34544;48.836;9.174;2024-01-25T03:50:29;9.90;99.90
48752;DHT22;34544;48.836;9.174;2024-01-25T03:52:55;9.90;99.90
48752;DHT22;34544;48.836;9.174;2024-01-25T03:55:21;9.90;99.90
48752;DHT22;34544;48.836;9.174;2024-01-25T03:57:46;9.90;99.90
48752;DHT22;34544;48.836;9.174;2024-01-25T04:00:12;9.90;99.90
48752;DHT22;34544;48.836;9.174;2024-01-25T04:02:38;9.90;99.90
48752;DHT22;34544;48.836;9.174;2024-01-25T04:05:04;9.80;99.90
48752;DHT22;34544;48.836;9.174;2024-01-25T04:07:30;9.80;99.90
48752;DHT22;34544;48.836;9.174;2024-01-25T04:09:56;9.80;99.90
48752;DHT22;34544;48.836;9.174;2024-01-25T04:12:22;9.80;99.90
48752;DHT22;34544;48.836;9.174;2024-01-25T04:14:50;9.80;99.90
48752;DHT22;34544;48.836;9.174;2024-01-25T04:17:16;9.70;99.90
48752;DHT22;34544;48.836;9.174;2024-01-25T04:19:41;9.70;99.90
48752;DHT22;34544;48.836;9.174;2024-01-25T04:22:07;9.80;99.90
48752;DHT22;34544;48.836;9.174;2024-01-25T04:24:32;9.70;99.90
48752;DHT22;34544;48.836;9.174;2024-01-25T04:26:59;9.70;99.90
48752;DHT22;34544;48.836;9.174;2024-01-25T04:29:25;9.70;99.90
48752;DHT22;34544;48.836;9.174;2024-01-25T04:31:50;9.70;99.90
48752;DHT22;34544;48.836;9.174;2024-01-25T04:34:16;9.70;99.90
48752;DHT22;34544;48.836;9.174;2024-01-25T04:36:42;9.70;99.90
48752;DHT22;34544;48.836;9.174;2024-01-25T04:39:08;9.70;99.90
48752;DHT22;34544;48.836;9.174;2024-01-25T04:41:34;9.70;99.90
48752;DHT22;34544;48.836;9.174;2024-01-25T04:44:00;9.60;99.90
48752;DHT22;34544;48.836;9.174;2024-01-25T04:46:25;9.70;99.90
48752;DHT22;34544;48.836;9.174;2024-01-25T04:48:52;9.70;99.90
48752;DHT22;34544;48.836;9.174;2024-01-25T04:51:18;9.70;99.90
48752;DHT22;34544;48.836;9.174;2024-01-25T04:53:45;9.70;99.90
48752;DHT22;34544;48.836;9.174;2024-01-25T04:56:11;9.70;99.90
48752;DHT22;34544;48.836;9.174;2024-01-25T04:58:37;9.60;99.90
48752;DHT22;34544;48.836;9.174;2024-01-25T05:01:02;9.60;99.90
48752;DHT22;34544;48.836;9.174;2024-01-25T05:03:28;9.60;99.90
48752;DHT22;34544;48.836;9.174;2024-01-25T05:05:53;9.60;99.90
48752;DHT22;34544;48.836;9.174;2024-01-25T05:08:19;9.50;99.90
48752;DHT22;34544;48.836;9.174;2024-01-25T05:10:45;9.50;99.90
48752;DHT22;34544;48.836;9.174;2024-01-25T05:13:11;9.40;99.90
48752;DHT22;34544;48.836;9.174;2024-01-25T05:15:37;9.30;99.90
48752;DHT22;34544;48.836;9.174;2024-01-25T05:18:03;9.20;99.90
48752;DHT22;34544;48.836;9.174;2024-01-25T05:20:29;9.10;99.90
48752;DHT22;34544;48.836;9.174;2024-01-25T05:23:02;9.00;99.90
48752;DHT22;34544;48.836;9.174;2024-01-25T05:25:28;9.00;99.90
48752;DHT22;34544;48.836;9.174;2024-01-25T05:27:54;8.90;99.90
48752;DHT22;34544;48.836;9.174;2024-01-25T05:30:24;8.90;99.90
48752;DHT22;34544;48.836;9.174;2024-01-25T05:32:50;8.80;99.90
48752;DHT22;34544;48.836;9.174;2024-01-25T05:35:17;8.70;99.90
48752;DHT22;34544;48.836;9.174;2024-01-25T05:37:43;8.70;99.90
48752;DHT22;34544;48.836;9.174;2024-01-25T05:40:09;8.60;99.90
48752;DHT22;34544;48.836;9.174;2024-01-25T05:42:35;8.60;99.90
48752;DHT22;34544;48.836;9.174;2024-01-25T05:45:02;8.50;99.90
48752;DHT22;34544;48.836;9.174;2024-01-25T05:47:29;8.50;99.90
48752;DHT22;34544;48.836;9.174;2024-01-25T05:49:56;8.40;99.90
48752;DHT22;34544;48.836;9.174;2024-01-25T05:52:22;8.40;99.90
48752;DHT22;34544;48.836;9.174;2024-01-25T05:54:49;8.40;99.90
48752;DHT22;34544;48.836;9.174;2024-01-25T05:57:15;8.40;99.90
48752;DHT22;34544;48.836;9.174;2024-01-25T05:59:41;8.30;99.90
48752;DHT22;34544;48.836;9.174;2024-01-25T06:02:08;8.20;99.90
48752;DHT22;34544;48.836;9.174;2024-01-25T06:04:34;8.20;99.90
48752;DHT22;34544;48.836;9.174;2024-01-25T06:07:00;8.20;99.90
48752;DHT22;34544;48.836;9.174;2024-01-25T06:09:26;8.10;99.90
48752;DHT22;34544;48.836;9.174;2024-01-25T06:11:52;8.10;99.90
48752;DHT22;34544;48.836;9.174;2024-01-25T06:14:18;8.00;99.90
48752;DHT22;34544;48.836;9.174;2024-01-25T06:16:44;7.90;99.90
48752;DHT22;34544;48.836;9.174;2024-01-25T06:19:10;7.80;99.90
48752;DHT22;34544;48.836;9.174;2024-01-25T06:21:36;7.90;99.90
48752;DHT22;34544;48.836;9.174;2024-01-25T06:24:04;7.80;99.90
48752;DHT22;34544;48.836;9.174;2024-01-25T06:26:30;7.80;99.90
48752;DHT22;34544;48.836;9.174;2024-01-25T06:28:56;7.80;99.90
48752;DHT22;34544;48.836;9.174;2024-01-25T06:31:25;7.70;99.90
48752;DHT22;34544;48.836;9.174;2024-01-25T06:33:51;7.70;99.90
48752;DHT22;34544;48.836;9.174;2024-01-25T06:36:21;7.60;99.90
48752;DHT22;34544;48.836;9.174;2024-01-25T06:38:47;7.60;99.90
48752;DHT22;34544;48.836;9.174;2024-01-25T06:41:13;7.60;99.90
48752;DHT22;34544;48.836;9.174;2024-01-25T06:43:40;7.60;99.90
48752;DHT22;34544;48.836;9.174;2024-01-25T06:46:06;7.60;99.90
48752;DHT22;34544;48.836;9.174;2024-01-25T06:48:32;7.60;99.90
48752;DHT22;34544;48.836;9.174;2024-01-25T06:50:58;7.60;99.90
48752;DHT22;34544;48.836;9.174;2024-01-25T06:53:24;7.60;99.90
48752;DHT22;34544;48.836;9.174;2024-01-25T06:55:50;7.60;99.90
48752;DHT22;34544;48.836;9.174;2024-01-25T06:58:15;7.50;99.90
48752;DHT22;34544;48.836;9.174;2024-01-25T07:00:41;7.50;99.90
48752;DHT22;34544;48.836;9.174;2024-01-25T07:03:08;7.50;99.90
48752;DHT22;34544;48.836;9.174;2024-01-25T07:05:34;7.40;99.90
48752;DHT22;34544;48.836;9.174;2024-01-25T07:08:01;7.40;99.90
48752;DHT22;34544;48.836;9.174;2024-01-25T07:10:27;7.50;99.90
48752;DHT22;34544;48.836;9.174;2024-01-25T07:12:53;7.50;99.90
48752;DHT22;34544;48.836;9.174;2024-01-25T07:15:19;7.50;99.90
48752;DHT22;34544;48.836;9.174;2024-01-25T07:17:45;7.50;99.90
48752;DHT22;34544;48.836;9.174;2024-01-25T07:20:11;7.50;99.90
48752;DHT22;34544;48.836;9.174;2024-01-25T07:22:37;7.50;99.90
48752;DHT22;34544;48.836;9.174;2024-01-25T07:25:03;7.50;99.90
48752;DHT22;34544;48.836;9.174;2024-01-25T07:27:30;7.50;99.90
48752;DHT22;34544;48.836;9.174;2024-01-25T07:29:56;7.50;99.90
48752;DHT22;34544;48.836;9.174;2024-01-25T07:32:21;7.50;99.90
48752;DHT22;34544;48.836;9.174;2024-01-25T07:34:49;7.50;99.90
48752;DHT22;34544;48.836;9.174;2024-01-25T07:37:15;7.50;99.90
48752;DHT22;34544;48.836;9.174;2024-01-25T07:39:41;7.50;99.90
48752;DHT22;34544;48.836;9.174;2024-01-25T07:42:07;7.50;99.90
48752;DHT22;34544;48.836;9.174;2024-01-25T07:44:33;7.50;99.90
48752;DHT22;34544;48.836;9.174;2024-01-25T07:46:59;7.50;99.90
48752;DHT22;34544;48.836;9.174;2024-01-25T07:49:25;7.50;99.90
48752;DHT22;34544;48.836;9.174;2024-01-25T07:51:51;7.50;99.90
48752;DHT22;34544;48.836;9.174;2024-01-25T07:54:17;7.60;99.90
48752;DHT22;34544;48.836;9.174;2024-01-25T07:56:43;7.70;99.90
48752;DHT22;34544;48.836;9.174;2024-01-25T07:59:08;7.80;99.90
48752;DHT22;34544;48.836;9.174;2024-01-25T08:01:35;8.00;99.90
48752;DHT22;34544;48.836;9.174;2024-01-25T08:04:01;8.20;99.90
48752;DHT22;34544;48.836;9.174;2024-01-25T08:06:28;8.50;99.90
48752;DHT22;34544;48.836;9.174;2024-01-25T08:08:54;8.70;99.90
48752;DHT22;34544;48.836;9.174;2024-01-25T08:11:20;8.90;99.90
48752;DHT22;34544;48.836;9.174;2024-01-25T08:13:47;9.20;99.90
48752;DHT22;34544;48.836;9.174;2024-01-25T08:18:40;9.50;99.90
48752;DHT22;34544;48.836;9.174;2024-01-25T08:21:06;9.60;99.90
48752;DHT22;34544;48.836;9.174;2024-01-25T08:23:31;9.80;99.90
48752;DHT22;34544;48.836;9.174;2024-01-25T08:25:57;10.00;99.90
48752;DHT22;34544;48.836;9.174;2024-01-25T08:28:23;10.20;99.90
48752;DHT22;34544;48.836;9.174;2024-01-25T08:30:49;10.40;99.90
48752;DHT22;34544;48.836;9.174;2024-01-25T08:33:15;10.50;99.90
48752;DHT22;34544;48.836;9.174;2024-01-25T08:35:40;10.70;99.90
48752;DHT22;34544;48.836;9.174;2024-01-25T08:38:06;10.60;99.90
48752;DHT22;34544;48.836;9.174;2024-01-25T08:40:33;10.80;99.90
48752;DHT22;34544;48.836;9.174;2024-01-25T08:45:24;11.00;99.90
48752;DHT22;34544;48.836;9.174;2024-01-25T08:47:50;11.30;99.90
48752;DHT22;34544;48.836;9.174;2024-01-25T08:50:18;11.50;99.90
48752;DHT22;34544;48.836;9.174;2024-01-25T08:52:44;11.70;99.90
48752;DHT22;34544;48.836;9.174;2024-01-25T08:55:10;11.80;99.90
48752;DHT22;34544;48.836;9.174;2024-01-25T08:57:36;11.80;99.90
48752;DHT22;34544;48.836;9.174;2024-01-25T09:00:02;12.00;99.90
48752;DHT22;34544;48.836;9.174;2024-01-25T09:02:28;12.20;99.90
48752;DHT22;34544;48.836;9.174;2024-01-25T09:04:55;12.40;99.90
48752;DHT22;34544;48.836;9.174;2024-01-25T09:07:21;12.50;99.90
48752;DHT22;34544;48.836;9.174;2024-01-25T09:09:48;12.70;99.90
48752;DHT22;34544;48.836;9.174;2024-01-25T09:12:13;12.90;99.90
48752;DHT22;34544;48.836;9.174;2024-01-25T09:14:40;13.20;99.90
48752;DHT22;34544;48.836;9.174;2024-01-25T09:17:05;13.40;99.90
48752;DHT22;34544;48.836;9.174;2024-01-25T09:19:31;13.50;99.90
48752;DHT22;34544;48.836;9.174;2024-01-25T09:21:57;13.80;99.90
48752;DHT22;34544;48.836;9.174;2024-01-25T09:24:25;14.00;99.90
48752;DHT22;34544;48.836;9.174;2024-01-25T09:26:51;14.30;99.90
48752;DHT22;34544;48.836;9.174;2024-01-25T09:29:16;14.70;99.90
48752;DHT22;34544;48.836;9.174;2024-01-25T09:31:42;15.10;99.90
48752;DHT22;34544;48.836;9.174;2024-01-25T09:34:08;15.50;99.90
48752;DHT22;34544;48.836;9.174;2024-01-25T09:36:34;15.70;99.90
48752;DHT22;34544;48.836;9.174;2024-01-25T09:38:59;15.70;99.90
48752;DHT22;34544;48.836;9.174;2024-01-25T09:41:25;15.50;99.90
48752;DHT22;34544;48.836;9.174;2024-01-25T09:43:52;15.20;99.90
48752;DHT22;34544;48.836;9.174;2024-01-25T09:46:19;14.90;99.90
48752;DHT22;34544;48.836;9.174;2024-01-25T09:48:44;14.70;99.90
48752;DHT22;34544;48.836;9.174;2024-01-25T09:51:12;14.80;99.90
48752;DHT22;34544;48.836;9.174;2024-01-25T09:53:39;14.90;99.90
48752;DHT22;34544;48.836;9.174;2024-01-25T09:56:10;14.80;99.90
48752;DHT22;34544;48.836;9.174;2024-01-25T09:58:41;14.70;99.90
48752;DHT22;34544;48.836;9.174;2024-01-25T10:01:14;14.40;99.90
48752;DHT22;34544;48.836;9.174;2024-01-25T10:03:44;14.20;99.90
48752;DHT22;34544;48.836;9.174;2024-01-25T10:06:11;14.00;99.90
48752;DHT22;34544;48.836;9.174;2024-01-25T10:08:36;13.80;99.90
48752;DHT22;34544;48.836;9.174;2024-01-25T10:11:03;13.80;99.90
48752;DHT22;34544;48.836;9.174;2024-01-25T10:13:29;13.60;99.90
48752;DHT22;34544;48.836;9.174;2024-01-25T10:15:56;13.60;99.90
48752;DHT22;34544;48.836;9.174;2024-01-25T10:18:27;13.70;99.90
48752;DHT22;34544;48.836;9.174;2024-01-25T10:20:56;13.70;99.90
48752;DHT22;34544;48.836;9.174;2024-01-25T10:23:21;13.80;99.90
48752;DHT22;34544;48.836;9.174;2024-01-25T10:25:48;14.10;99.90
48752;DHT22;34544;48.836;9.174;2024-01-25T10:28:13;14.60;99.90
48752;DHT22;34544;48.836;9.174;2024-01-25T10:30:39;15.00;99.90
48752;DHT22;34544;48.836;9.174;2024-01-25T10:33:05;15.10;99.90
48752;DHT22;34544;48.836;9.174;2024-01-25T10:35:31;15.10;99.90
48752;DHT22;34544;48.836;9.174;2024-01-25T10:37:57;15.10;99.90
48752;DHT22;34544;48.836;9.174;2024-01-25T10:40:23;15.00;99.90
48752;DHT22;34544;48.836;9.174;2024-01-25T10:42:49;14.80;99.90
48752;DHT22;34544;48.836;9.174;2024-01-25T10:45:15;14.50;99.90
48752;DHT22;34544;48.836;9.174;2024-01-25T10:47:40;14.60;99.90
48752;DHT22;34544;48.836;9.174;2024-01-25T10:50:12;14.90;99.90
48752;DHT22;34544;48.836;9.174;2024-01-25T10:52:40;15.20;99.90
48752;DHT22;34544;48.836;9.174;2024-01-25T10:55:07;15.30;99.90
48752;DHT22;34544;48.836;9.174;2024-01-25T10:57:37;15.70;99.90
48752;DHT22;34544;48.836;9.174;2024-01-25T11:00:06;16.10;99.90
48752;DHT22;34544;48.836;9.174;2024-01-25T11:02:35;16.30;99.90
48752;DHT22;34544;48.836;9.174;2024-01-25T11:05:00;16.00;99.90
48752;DHT22;34544;48.836;9.174;2024-01-25T11:07:28;15.60;99.90
48752;DHT22;34544;48.836;9.174;2024-01-25T11:09:54;15.50;99.90
48752;DHT22;34544;48.836;9.174;2024-01-25T11:12:20;15.90;99.90
48752;DHT22;34544;48.836;9.174;2024-01-25T11:14:54;16.20;99.90
48752;DHT22;34544;48.836;9.174;2024-01-25T11:17:21;16.20;99.90
48752;DHT22;34544;48.836;9.174;2024-01-25T11:19:51;16.90;99.90
48752;DHT22;34544;48.836;9.174;2024-01-25T11:22:16;17.60;99.90
48752;DHT22;34544;48.836;9.174;2024-01-25T11:24:43;18.30;99.90
48752;DHT22;34544;48.836;9.174;2024-01-25T11:27:10;18.60;99.90
48752;DHT22;34544;48.836;9.174;2024-01-25T11:29:38;19.00;99.90
48752;DHT22;34544;48.836;9.174;2024-01-25T11:32:04;18.70;99.90
48752;DHT22;34544;48.836;9.174;2024-01-25T11:34:31;18.40;99.90
48752;DHT22;34544;48.836;9.174;2024-01-25T11:36:57;18.40;99.90
48752;DHT22;34544;48.836;9.174;2024-01-25T11:39:26;18.50;99.90
48752;DHT22;34544;48.836;9.174;2024-01-25T11:41:52;18.70;99.90
48752;DHT22;34544;48.836;9.174;2024-01-25T11:44:18;18.70;99.90
48752;DHT22;34544;48.836;9.174;2024-01-25T11:46:44;19.20;99.90
48752;DHT22;34544;48.836;9.174;2024-01-25T11:49:09;19.70;99.90
48752;DHT22;34544;48.836;9.174;2024-01-25T11:51:35;20.20;99.90
48752;DHT22;34544;48.836;9.174;2024-01-25T11:54:01;20.40;99.90
48752;DHT22;34544;48.836;9.174;2024-01-25T11:56:33;20.50;99.20
48752;DHT22;34544;48.836;9.174;2024-01-25T11:58:59;20.60;98.80
48752;DHT22;34544;48.836;9.174;2024-01-25T12:01:27;20.90;99.20
48752;DHT22;34544;48.836;9.174;2024-01-25T12:03:53;21.20;98.10
48752;DHT22;34544;48.836;9.174;2024-01-25T12:06:19;20.90;98.00
48752;DHT22;34544;48.836;9.174;2024-01-25T12:08:46;20.60;98.40
48752;DHT22;34544;48.836;9.174;2024-01-25T12:11:13;20.10;98.40
48752;DHT22;34544;48.836;9.174;2024-01-25T12:13:43;19.50;98.40
48752;DHT22;34544;48.836;9.174;2024-01-25T12:16:10;19.30;98.50
48752;DHT22;34544;48.836;9.174;2024-01-25T12:18:37;19.40;98.40
48752;DHT22;34544;48.836;9.174;2024-01-25T12:21:04;19.90;97.90
48752;DHT22;34544;48.836;9.174;2024-01-25T12:23:39;20.10;97.30
48752;DHT22;34544;48.836;9.174;2024-01-25T12:26:09;20.40;97.50
48752;DHT22;34544;48.836;9.174;2024-01-25T12:28:35;20.70;96.90
48752;DHT22;34544;48.836;9.174;2024-01-25T12:31:03;20.80;96.20
48752;DHT22;34544;48.836;9.174;2024-01-25T12:33:32;21.10;96.80
48752;DHT22;34544;48.836;9.174;2024-01-25T12:35:58;21.20;96.00
48752;DHT22;34544;48.836;9.174;2024-01-25T12:38:25;21.30;96.00
48752;DHT22;34544;48.836;9.174;2024-01-25T12:40:51;21.60;95.70
48752;DHT22;34544;48.836;9.174;2024-01-25T12:43:18;21.50;95.60
48752;DHT22;34544;48.836;9.174;2024-01-25T12:45:44;21.00;95.30
48752;DHT22;34544;48.836;9.174;2024-01-25T12:48:10;21.00;95.70
48752;DHT22;34544;48.836;9.174;2024-01-25T12:50:37;21.00;95.40
48752;DHT22;34544;48.836;9.174;2024-01-25T12:53:03;21.10;95.50
48752;DHT22;34544;48.836;9.174;2024-01-25T12:55:30;21.40;95.20
48752;DHT22;34544;48.836;9.174;2024-01-25T12:57:59;21.60;95.30
48752;DHT22;34544;48.836;9.174;2024-01-25T13:00:25;21.70;94.80
48752;DHT22;34544;48.836;9.174;2024-01-25T13:02:51;21.70;94.80
48752;DHT22;34544;48.836;9.174;2024-01-25T13:05:16;21.70;94.60
48752;DHT22;34544;48.836;9.174;2024-01-25T13:07:42;21.70;94.80
48752;DHT22;34544;48.836;9.174;2024-01-25T13:10:11;21.50;94.70
48752;DHT22;34544;48.836;9.174;2024-01-25T13:12:40;21.50;94.80
48752;DHT22;34544;48.836;9.174;2024-01-25T13:15:06;21.50;94.60
48752;DHT22;34544;48.836;9.174;2024-01-25T13:17:34;21.70;94.80
48752;DHT22;34544;48.836;9.174;2024-01-25T13:20:01;21.50;94.50
48752;DHT22;34544;48.836;9.174;2024-01-25T13:22:27;21.20;94.50
48752;DHT22;34544;48.836;9.174;2024-01-25T13:24:55;21.00;94.90
48752;DHT22;34544;48.836;9.174;2024-01-25T13:27:21;21.00;94.40
48752;DHT22;34544;48.836;9.174;2024-01-25T13:29:46;21.00;94.60
48752;DHT22;34544;48.836;9.174;2024-01-25T13:32:12;20.70;94.70
48752;DHT22;34544;48.836;9.174;2024-01-25T13:34:38;20.40;95.00
48752;DHT22;34544;48.836;9.174;2024-01-25T13:37:03;20.30;95.50
48752;DHT22;34544;48.836;9.174;2024-01-25T13:39:29;20.30;95.20
48752;DHT22;34544;48.836;9.174;2024-01-25T13:41:55;20.00;95.30
48752;DHT22;34544;48.836;9.174;2024-01-25T13:44:22;19.60;95.50
48752;DHT22;34544;48.836;9.174;2024-01-25T13:46:48;19.00;96.20
48752;DHT22;34544;48.836;9.174;2024-01-25T13:49:13;18.40;96.90
48752;DHT22;34544;48.836;9.174;2024-01-25T13:51:39;17.70;98.00
48752;DHT22;34544;48.836;9.174;2024-01-25T13:58:57;16.30;99.90
48752;DHT22;34544;48.836;9.174;2024-01-25T14:01:22;16.10;99.90
48752;DHT22;34544;48.836;9.174;2024-01-25T14:03:48;15.50;99.90
48752;DHT22;34544;48.836;9.174;2024-01-25T14:06:14;15.10;99.90
48752;DHT22;34544;48.836;9.174;2024-01-25T14:08:40;14.90;99.90
48752;DHT22;34544;48.836;9.174;2024-01-25T14:11:05;14.70;99.90
48752;DHT22;34544;48.836;9.174;2024-01-25T14:13:32;14.50;99.90
48752;DHT22;34544;48.836;9.174;2024-01-25T14:15:58;14.20;99.90
48752;DHT22;34544;48.836;9.174;2024-01-25T14:20:51;14.00;99.90
48752;DHT22;34544;48.836;9.174;2024-01-25T14:23:16;13.90;99.90
48752;DHT22;34544;48.836;9.174;2024-01-25T14:25:42;13.80;99.90
48752;DHT22;34544;48.836;9.174;2024-01-25T14:28:07;13.70;99.90
48752;DHT22;34544;48.836;9.174;2024-01-25T14:30:33;13.50;99.90
48752;DHT22;34544;48.836;9.174;2024-01-25T14:32:59;13.50;99.90
48752;DHT22;34544;48.836;9.174;2024-01-25T14:35:24;13.30;99.90
48752;DHT22;34544;48.836;9.174;2024-01-25T14:37:56;13.30;99.90
48752;DHT22;34544;48.836;9.174;2024-01-25T14:40:23;13.10;99.90
48752;DHT22;34544;48.836;9.174;2024-01-25T14:42:49;13.00;99.90
48752;DHT22;34544;48.836;9.174;2024-01-25T14:45:15;12.90;99.90
48752;DHT22;34544;48.836;9.174;2024-01-25T14:47:41;12.80;99.90
48752;DHT22;34544;48.836;9.174;2024-01-25T14:50:06;12.70;99.90
48752;DHT22;34544;48.836;9.174;2024-01-25T14:52:32;12.60;99.90
48752;DHT22;34544;48.836;9.174;2024-01-25T14:55:05;12.60;99.90
48752;DHT22;34544;48.836;9.174;2024-01-25T14:59:57;12.40;99.90
48752;DHT22;34544;48.836;9.174;2024-01-25T15:02:23;12.30;99.90
48752;DHT22;34544;48.836;9.174;2024-01-25T15:04:49;12.30;99.90
48752;DHT22;34544;48.836;9.174;2024-01-25T15:07:16;12.20;99.90
48752;DHT22;34544;48.836;9.174;2024-01-25T15:09:42;12.20;99.90
48752;DHT22;34544;48.836;9.174;2024-01-25T15:12:08;12.50;99.90
48752;DHT22;34544;48.836;9.174;2024-01-25T15:14:34;12.10;99.90
48752;DHT22;34544;48.836;9.174;2024-01-25T15:16:59;12.00;99.90
48752;DHT22;34544;48.836;9.174;2024-01-25T15:19:25;11.90;99.90
48752;DHT22;34544;48.836;9.174;2024-01-25T15:21:50;11.90;99.90
48752;DHT22;34544;48.836;9.174;2024-01-25T15:24:16;11.90;99.90
48752;DHT22;34544;48.836;9.174;2024-01-25T15:26:42;11.80;99.90
48752;DHT22;34544;48.836;9.174;2024-01-25T15:29:08;11.80;99.90
48752;DHT22;34544;48.836;9.174;2024-01-25T15:31:34;11.80;99.90
48752;DHT22;34544;48.836;9.174;2024-01-25T15:34:00;11.80;99.90
48752;DHT22;34544;48.836;9.174;2024-01-25T15:36:25;11.70;99.90
48752;DHT22;34544;48.836;9.174;2024-01-25T15:38:51;11.50;99.90
48752;DHT22;34544;48.836;9.174;2024-01-25T15:41:17;11.70;99.90
48752;DHT22;34544;48.836;9.174;2024-01-25T15:43:46;11.70;99.90